Time;durP1;ratioP1;P1;durP2;ratioP2;P2;SDS_P1;SDS_P2;PMS_P1;PMS_P2;Temp;Humidity;BMP_temperature;BMP_pressure;BME280_temperature;BME280_humidity;BME280_pressure;Samples;Min_cycle;Max_cycle;Signal;HPM_P1;HPM_P2
2021/08/27 00:02:17;;;;;;;9.52;4.97;;;;;;;;;;5056895;28;20017;-81
2021/08/27 00:04:43;;;;;;;10.55;4.95;;;;;;;;;;5045394;28;20021;-81
2021/08/27 00:07:09;;;;;;;6.32;4.72;;;;;;;;;;5053093;28;20013;-82
2021/08/27 00:09:35;;;;;;;8.43;4.70;;;;;;;;;;5052470;28;20071;-80
2021/08/27 00:12:01;;;;;;;12.40;5.68;;;;;;;;;;5057523;28;20032;-81
2021/08/27 00:14:27;;;;;;;7.45;5.32;;;;;;;;;;5075967;28;20076;-82
2021/08/27 00:16:54;;;;;;;7.88;4.65;;;;;;;;;;5057901;28;20029;-81
2021/08/27 00:19:20;;;;;;;9.73;5.70;;;;;;;;;;5075413;28;20047;-81
2021/08/27 00:21:46;;;;;;;9.05;5.03;;;;;;;;;;5061291;28;20037;-81
2021/08/27 00:24:13;;;;;;;11.82;6.43;;;;;;;;;;5068042;28;20420;-82
2021/08/27 00:26:39;;;;;;;7.35;5.05;;;;;;;;;;5046043;28;20057;-82
2021/08/27 00:29:05;;;;;;;7.82;5.15;;;;;;;;;;5040608;28;20018;-82
2021/08/27 00:31:31;;;;;;;11.05;5.07;;;;;;;;;;5039830;28;20036;-82
2021/08/27 00:33:58;;;;;;;6.22;4.32;;;;;;;;;;5057502;28;20040;-82
2021/08/27 00:36:25;;;;;;;6.25;4.60;;;;;;;;;;5060103;28;20021;-82
2021/08/27 00:38:52;;;;;;;7.22;4.88;;;;;;;;;;5060098;28;20021;-82
2021/08/27 00:41:19;;;;;;;6.78;4.63;;;;;;;;;;5058672;28;20461;-82
2021/08/27 00:43:45;;;;;;;6.63;4.28;;;;;;;;;;5060035;28;20116;-82
2021/08/27 00:46:11;;;;;;;6.72;4.57;;;;;;;;;;5059930;28;20024;-82
2021/08/27 00:48:37;;;;;;;6.38;4.70;;;;;;;;;;5060128;28;20021;-81
2021/08/27 00:51:10;;;;;;;7.07;5.20;;;;;;;;;;5058276;28;20531;-82
2021/08/27 00:53:37;;;;;;;6.05;4.72;;;;;;;;;;5065116;28;20073;-80
2021/08/27 00:56:32;;;;;;;6.68;4.38;;;;;;;;;;5060875;28;20131;-81
2021/08/27 00:59:09;;;;;;;7.03;5.63;;;;;;;;;;5016750;28;20026;-81
2021/08/27 01:02:04;;;;;;;8.02;5.30;;;;;;;;;;5047630;28;20044;-81
2021/08/27 01:04:51;;;;;;;8.85;5.50;;;;;;;;;;5050143;28;20032;-81
2021/08/27 01:07:17;;;;;;;6.78;4.68;;;;;;;;;;5058403;28;20500;-81
2021/08/27 01:10:02;;;;;;;9.60;5.57;;;;;;;;;;5057751;28;20068;-81
2021/08/27 01:12:34;;;;;;;7.25;4.95;;;;;;;;;;5058476;28;20557;-81
2021/08/27 01:15:02;;;;;;;8.27;5.07;;;;;;;;;;5060630;28;20029;-81
2021/08/27 01:17:34;;;;;;;5.55;4.20;;;;;;;;;;5066079;28;20020;-81
2021/08/27 01:20:03;;;;;;;8.80;5.68;;;;;;;;;;5065452;28;20156;-81
2021/08/27 01:23:02;;;;;;;6.22;4.32;;;;;;;;;;5059104;28;20500;-81
2021/08/27 01:25:29;;;;;;;7.43;4.93;;;;;;;;;;5019024;28;20040;-82
2021/08/27 01:27:56;;;;;;;9.60;4.78;;;;;;;;;;5069281;28;20021;-82
2021/08/27 01:30:28;;;;;;;8.52;4.72;;;;;;;;;;5059361;28;20368;-81
2021/08/27 01:32:54;;;;;;;;;;;;;;;;;;5060060;28;20059;-81
2021/08/27 01:35:20;;;;;;;7.85;4.03;;;;;;;;;;5078106;28;19904;-82
2021/08/27 01:37:48;;;;;;;8.50;5.10;;;;;;;;;;5063782;28;20033;-81
2021/08/27 01:40:15;;;;;;;7.93;5.05;;;;;;;;;;5066896;28;20035;-81
2021/08/27 01:42:41;;;;;;;8.85;5.47;;;;;;;;;;5069838;28;20040;-81
2021/08/27 01:45:08;;;;;;;6.85;4.70;;;;;;;;;;5070955;28;20033;-81
2021/08/27 01:47:35;;;;;;;8.65;5.60;;;;;;;;;;5075023;28;20044;-82
2021/08/27 01:50:01;;;;;;;5.03;4.18;;;;;;;;;;5077400;28;20013;-82
2021/08/27 01:52:27;;;;;;;10.02;5.40;;;;;;;;;;5076724;28;20025;-81
2021/08/27 01:57:28;;;;;;;6.93;5.30;;;;;;;;;;5039420;28;20073;-83
2021/08/27 01:59:55;;;;;;;6.63;4.00;;;;;;;;;;5066061;28;20049;-83
2021/08/27 02:02:22;;;;;;;7.00;4.78;;;;;;;;;;5047875;28;20029;-84
2021/08/27 02:04:50;;;;;;;8.32;5.38;;;;;;;;;;5042227;28;20033;-84
2021/08/27 02:07:17;;;;;;;8.10;4.93;;;;;;;;;;5043709;28;20025;-84
2021/08/27 02:09:44;;;;;;;9.25;5.05;;;;;;;;;;5055890;28;20021;-84
2021/08/27 02:12:10;;;;;;;7.15;5.18;;;;;;;;;;5054378;28;20529;-84
2021/08/27 02:14:39;;;;;;;14.00;5.75;;;;;;;;;;5037865;28;20033;-85
2021/08/27 02:17:06;;;;;;;10.60;5.72;;;;;;;;;;5037751;28;20021;-84
2021/08/27 02:19:32;;;;;;;9.85;6.15;;;;;;;;;;5050361;28;20014;-84
2021/08/27 02:21:59;;;;;;;9.55;5.65;;;;;;;;;;5060003;28;20061;-84
2021/08/27 02:24:29;;;;;;;7.10;5.10;;;;;;;;;;5062424;28;20029;-85
2021/08/27 02:26:55;;;;;;;10.88;5.95;;;;;;;;;;5053748;28;20025;-85
2021/08/27 02:29:24;;;;;;;11.52;6.57;;;;;;;;;;5037379;28;20056;-84
2021/08/27 02:31:52;;;;;;;9.85;6.82;;;;;;;;;;5039133;28;20411;-85
2021/08/27 02:34:19;;;;;;;9.38;6.72;;;;;;;;;;5039858;28;20025;-84
2021/08/27 02:36:47;;;;;;;10.07;6.93;;;;;;;;;;5037362;28;20029;-84
2021/08/27 02:39:15;;;;;;;11.90;8.05;;;;;;;;;;5038445;28;20038;-84
2021/08/27 02:41:41;;;;;;;10.85;8.07;;;;;;;;;;5039884;28;20029;-84
2021/08/27 02:44:07;;;;;;;11.98;8.10;;;;;;;;;;5037781;28;20025;-84
2021/08/27 02:46:33;;;;;;;10.25;7.45;;;;;;;;;;5039251;28;20045;-84
2021/08/27 02:49:00;;;;;;;13.30;8.85;;;;;;;;;;5044989;28;20002;-84
2021/08/27 02:51:46;;;;;;;15.35;9.20;;;;;;;;;;5055423;28;20033;-83
2021/08/27 02:54:14;;;;;;;12.18;8.25;;;;;;;;;;5055799;28;20041;-85
2021/08/27 02:56:41;;;;;;;12.68;9.52;;;;;;;;;;5051764;28;20040;-84
2021/08/27 02:59:11;;;;;;;14.18;10.30;;;;;;;;;;5059324;28;20047;-85
2021/08/27 03:01:40;;;;;;;13.82;9.55;;;;;;;;;;5059785;28;20017;-85
2021/08/27 03:04:21;;;;;;;16.35;10.30;;;;;;;;;;5059036;28;20167;-84
2021/08/27 03:06:54;;;;;;;12.55;8.35;;;;;;;;;;5068947;28;20029;-84
2021/08/27 03:09:20;;;;;;;13.55;9.68;;;;;;;;;;5075696;28;20029;-82
2021/08/27 03:11:50;;;;;;;13.50;8.55;;;;;;;;;;5060341;28;20036;-85
2021/08/27 03:14:31;;;;;;;12.50;8.70;;;;;;;;;;5059458;28;20081;-85
2021/08/27 03:16:59;;;;;;;12.43;7.47;;;;;;;;;;5049922;28;20030;-84
2021/08/27 03:19:33;;;;;;;12.73;8.20;;;;;;;;;;5039446;28;20025;-84
2021/08/27 03:22:03;;;;;;;12.48;8.70;;;;;;;;;;5040244;28;20025;-84
2021/08/27 03:24:32;;;;;;;12.85;8.85;;;;;;;;;;5049050;28;20105;-84
2021/08/27 03:27:00;;;;;;;11.30;7.63;;;;;;;;;;5060219;28;20096;-84
2021/08/27 03:29:28;;;;;;;11.32;7.88;;;;;;;;;;5061928;28;20923;-83
2021/08/27 03:31:54;;;;;;;14.98;9.23;;;;;;;;;;5062490;28;20092;-85
2021/08/27 03:34:20;;;;;;;14.07;9.98;;;;;;;;;;5062407;28;20120;-85
2021/08/27 03:36:47;;;;;;;13.70;8.85;;;;;;;;;;5063380;28;20501;-84
2021/08/27 03:39:13;;;;;;;13.27;8.10;;;;;;;;;;5063362;28;20029;-83
2021/08/27 03:41:40;;;;;;;12.23;8.75;;;;;;;;;;5070739;28;20025;-85
2021/08/27 03:44:07;;;;;;;13.30;8.70;;;;;;;;;;5074155;28;20083;-83
2021/08/27 03:46:35;;;;;;;14.48;8.90;;;;;;;;;;5067547;28;20029;-85
2021/08/27 03:49:01;;;;;;;15.75;9.30;;;;;;;;;;5061202;28;20017;-84
2021/08/27 03:51:27;;;;;;;14.25;9.02;;;;;;;;;;5061296;28;20098;-84
2021/08/27 03:53:54;;;;;;;13.40;8.45;;;;;;;;;;5055544;28;20061;-83
2021/08/27 03:56:20;;;;;;;14.57;9.05;;;;;;;;;;5054925;28;20037;-84
2021/08/27 03:58:46;;;;;;;12.63;9.02;;;;;;;;;;5063577;28;20025;-84
2021/08/27 04:01:12;;;;;;;14.02;9.00;;;;;;;;;;5063211;28;20029;-83
2021/08/27 04:03:40;;;;;;;16.10;9.50;;;;;;;;;;5062250;28;20036;-83
2021/08/27 04:06:07;;;;;;;14.65;9.40;;;;;;;;;;5066022;28;20025;-86
2021/08/27 04:08:37;;;;;;;12.45;9.02;;;;;;;;;;5064664;28;20019;-83
2021/08/27 04:11:03;;;;;;;13.55;8.85;;;;;;;;;;5063211;28;20071;-83
2021/08/27 04:13:29;;;;;;;12.45;8.23;;;;;;;;;;5062286;28;20032;-83
2021/08/27 04:15:55;;;;;;;14.27;8.60;;;;;;;;;;5061023;28;20047;-84
2021/08/27 04:18:21;;;;;;;12.48;7.10;;;;;;;;;;5061663;28;20025;-84
2021/08/27 04:20:47;;;;;;;7.90;5.43;;;;;;;;;;5060612;28;20033;-84
2021/08/27 04:23:14;;;;;;;6.40;4.90;;;;;;;;;;5061368;28;20029;-85
2021/08/27 04:25:40;;;;;;;7.15;5.03;;;;;;;;;;5054413;28;20045;-83
2021/08/27 04:28:06;;;;;;;6.50;4.57;;;;;;;;;;5056135;28;20025;-84
2021/08/27 04:30:33;;;;;;;4.93;3.83;;;;;;;;;;5042684;28;20418;-84
2021/08/27 04:32:59;;;;;;;3.92;3.33;;;;;;;;;;5044622;28;20014;-84
2021/08/27 04:35:25;;;;;;;4.50;3.35;;;;;;;;;;5042971;28;20048;-83
2021/08/27 04:37:53;;;;;;;6.15;4.22;;;;;;;;;;5043308;28;20361;-84
2021/08/27 04:40:19;;;;;;;5.72;3.90;;;;;;;;;;5041960;28;20021;-84
2021/08/27 04:42:45;;;;;;;5.75;4.22;;;;;;;;;;5042582;28;20462;-82
2021/08/27 04:45:11;;;;;;;6.78;4.05;;;;;;;;;;5042077;28;20029;-83
2021/08/27 04:47:37;;;;;;;8.20;4.80;;;;;;;;;;5043220;28;20025;-83
2021/08/27 04:50:04;;;;;;;5.85;4.15;;;;;;;;;;5044118;28;20049;-83
2021/08/27 04:52:30;;;;;;;6.95;3.80;;;;;;;;;;5044482;28;20473;-82
2021/08/27 04:54:56;;;;;;;4.93;3.40;;;;;;;;;;5052523;28;20486;-83
2021/08/27 04:57:23;;;;;;;5.13;3.33;;;;;;;;;;5063257;28;20098;-84
2021/08/27 04:59:49;;;;;;;4.18;3.33;;;;;;;;;;5063622;28;20028;-83
2021/08/27 05:02:15;;;;;;;4.55;3.35;;;;;;;;;;5060974;28;20032;-84
2021/08/27 05:04:41;;;;;;;6.95;3.85;;;;;;;;;;5059250;28;20033;-85
2021/08/27 05:07:07;;;;;;;4.28;3.15;;;;;;;;;;5060673;28;20031;-84
2021/08/27 05:09:33;;;;;;;4.13;3.15;;;;;;;;;;5061179;28;20052;-85
2021/08/27 05:12:00;;;;;;;4.38;2.80;;;;;;;;;;5060330;28;20029;-85
2021/08/27 05:14:26;;;;;;;7.75;3.30;;;;;;;;;;5060035;28;20033;-84
2021/08/27 05:16:52;;;;;;;3.75;2.20;;;;;;;;;;5059868;28;20021;-84
2021/08/27 05:19:18;;;;;;;3.13;2.20;;;;;;;;;;5051818;28;20028;-85
2021/08/27 05:21:44;;;;;;;2.50;2.17;;;;;;;;;;5043299;28;20382;-84
2021/08/27 05:24:10;;;;;;;2.85;2.28;;;;;;;;;;5055130;28;20025;-84
2021/08/27 05:26:37;;;;;;;4.63;2.38;;;;;;;;;;5058314;28;20021;-84
2021/08/27 05:29:03;;;;;;;4.70;3.55;;;;;;;;;;5041536;28;20026;-84
2021/08/27 05:31:29;;;;;;;7.13;4.28;;;;;;;;;;5040384;28;20022;-84
2021/08/27 05:33:55;;;;;;;7.80;4.57;;;;;;;;;;5038243;28;20055;-83
2021/08/27 05:36:22;;;;;;;7.32;3.75;;;;;;;;;;5043592;28;20029;-84
2021/08/27 05:38:48;;;;;;;6.78;4.43;;;;;;;;;;5072709;28;20033;-85
2021/08/27 05:41:14;;;;;;;8.25;4.97;;;;;;;;;;5058857;28;20079;-85
2021/08/27 05:43:40;;;;;;;10.70;5.80;;;;;;;;;;5058018;28;20104;-84
2021/08/27 05:46:07;;;;;;;6.28;5.07;;;;;;;;;;5057645;28;20021;-85
2021/08/27 05:48:33;;;;;;;7.82;5.53;;;;;;;;;;5058758;28;20142;-85
2021/08/27 05:50:59;;;;;;;9.75;6.20;;;;;;;;;;5059515;28;20025;-85
2021/08/27 05:53:25;;;;;;;10.52;6.50;;;;;;;;;;5061650;28;20017;-84
2021/08/27 05:55:51;;;;;;;11.43;6.35;;;;;;;;;;5056109;28;20037;-84
2021/08/27 05:58:17;;;;;;;10.82;7.68;;;;;;;;;;5057873;28;20041;-81
2021/08/27 06:00:43;;;;;;;10.50;7.47;;;;;;;;;;5041577;28;20540;-83
2021/08/27 06:03:10;;;;;;;8.85;6.10;;;;;;;;;;5043393;28;20032;-84
2021/08/27 06:05:37;;;;;;;10.20;6.32;;;;;;;;;;5041511;28;20069;-82
2021/08/27 06:08:03;;;;;;;8.35;6.28;;;;;;;;;;5050139;28;20029;-83
2021/08/27 06:10:29;;;;;;;11.43;6.00;;;;;;;;;;5053518;28;20022;-82
2021/08/27 06:12:55;;;;;;;9.48;6.97;;;;;;;;;;5049948;28;20489;-82
2021/08/27 06:15:21;;;;;;;13.40;6.95;;;;;;;;;;5044098;28;20021;-82
2021/08/27 06:17:47;;;;;;;9.60;6.57;;;;;;;;;;5044959;28;20037;-81
2021/08/27 06:20:13;;;;;;;7.43;5.90;;;;;;;;;;5043977;28;20054;-83
2021/08/27 06:22:39;;;;;;;11.27;6.70;;;;;;;;;;5043439;28;20041;-83
2021/08/27 06:25:06;;;;;;;8.57;5.72;;;;;;;;;;5065338;28;20025;-82
2021/08/27 06:27:32;;;;;;;7.43;5.88;;;;;;;;;;5052173;28;20048;-82
2021/08/27 06:30:00;;;;;;;11.60;6.47;;;;;;;;;;5047832;28;20026;-83
2021/08/27 06:32:26;;;;;;;8.80;6.30;;;;;;;;;;5047068;28;20490;-83
2021/08/27 06:34:54;;;;;;;8.90;6.03;;;;;;;;;;5043215;28;20394;-82
2021/08/27 06:37:20;;;;;;;9.50;6.38;;;;;;;;;;5039974;28;20022;-82
2021/08/27 06:39:46;;;;;;;7.22;5.72;;;;;;;;;;5042040;28;20038;-81
2021/08/27 06:42:12;;;;;;;6.78;5.07;;;;;;;;;;5048532;28;20033;-82
2021/08/27 06:44:38;;;;;;;6.00;5.00;;;;;;;;;;5047083;28;20026;-82
2021/08/27 06:47:05;;;;;;;6.78;4.93;;;;;;;;;;5046421;28;20025;-84
2021/08/27 06:49:31;;;;;;;7.28;5.00;;;;;;;;;;5044586;28;20018;-82
2021/08/27 06:51:57;;;;;;;8.00;5.03;;;;;;;;;;5045932;28;20045;-82
2021/08/27 06:54:26;;;;;;;7.57;4.55;;;;;;;;;;5053715;28;20075;-82
2021/08/27 06:56:52;;;;;;;7.05;4.30;;;;;;;;;;5058860;28;20036;-83
2021/08/27 06:59:18;;;;;;;9.52;4.70;;;;;;;;;;5047200;28;20010;-82
2021/08/27 07:01:44;;;;;;;7.72;4.43;;;;;;;;;;5049817;28;20036;-82
2021/08/27 07:04:10;;;;;;;5.75;3.72;;;;;;;;;;5048391;28;20025;-82
2021/08/27 07:06:36;;;;;;;7.18;3.90;;;;;;;;;;5048984;28;20032;-83
2021/08/27 07:09:02;;;;;;;5.03;3.22;;;;;;;;;;5048426;28;20025;-83
2021/08/27 07:11:28;;;;;;;5.88;3.30;;;;;;;;;;5048627;28;20036;-85
2021/08/27 07:13:54;;;;;;;5.10;3.50;;;;;;;;;;5048970;28;20564;-83
2021/08/27 07:16:20;;;;;;;3.90;3.25;;;;;;;;;;5048555;28;20041;-83
2021/08/27 07:18:46;;;;;;;5.90;3.35;;;;;;;;;;5049113;28;20084;-83
2021/08/27 07:21:14;;;;;;;5.10;3.92;;;;;;;;;;5048623;28;20033;-83
2021/08/27 07:23:40;;;;;;;5.53;3.63;;;;;;;;;;5053247;28;20505;-83
2021/08/27 07:26:06;;;;;;;5.78;3.70;;;;;;;;;;5057966;28;20023;-83
2021/08/27 07:28:33;;;;;;;6.00;3.83;;;;;;;;;;5049619;28;20032;-84
2021/08/27 07:30:59;;;;;;;7.82;4.15;;;;;;;;;;5049295;28;20049;-83
2021/08/27 07:33:25;;;;;;;4.85;3.40;;;;;;;;;;5048451;28;20025;-83
2021/08/27 07:35:51;;;;;;;5.55;4.00;;;;;;;;;;5049568;28;20036;-83
2021/08/27 07:38:17;;;;;;;7.63;3.90;;;;;;;;;;5050437;28;20100;-84
2021/08/27 07:40:43;;;;;;;3.35;3.05;;;;;;;;;;5051541;28;20034;-83
2021/08/27 07:43:10;;;;;;;3.92;3.00;;;;;;;;;;5046833;28;20033;-84
2021/08/27 07:45:36;;;;;;;5.45;3.30;;;;;;;;;;5049360;28;20232;-83
2021/08/27 07:48:02;;;;;;;4.28;2.97;;;;;;;;;;5049111;28;20022;-82
2021/08/27 07:50:28;;;;;;;4.72;3.45;;;;;;;;;;5049327;28;20030;-83
2021/08/27 07:52:54;;;;;;;4.47;2.83;;;;;;;;;;5047681;28;20029;-82
2021/08/27 07:55:22;;;;;;;2.50;2.25;;;;;;;;;;5068698;22;20170;-86
2021/08/27 07:57:48;;;;;;;5.00;3.05;;;;;;;;;;5089457;28;20036;-85
2021/08/27 08:00:14;;;;;;;2.65;2.22;;;;;;;;;;5084475;28;20078;-86
2021/08/27 08:02:40;;;;;;;5.18;2.67;;;;;;;;;;5079612;28;20048;-85
2021/08/27 08:05:07;;;;;;;2.13;1.83;;;;;;;;;;5062734;28;20090;-85
2021/08/27 08:07:33;;;;;;;4.05;2.45;;;;;;;;;;5042965;28;20096;-85
2021/08/27 08:09:59;;;;;;;4.78;2.67;;;;;;;;;;5060063;28;20032;-86
2021/08/27 08:12:25;;;;;;;6.07;2.50;;;;;;;;;;5069025;28;20021;-86
2021/08/27 08:14:52;;;;;;;3.63;2.85;;;;;;;;;;5063975;28;20115;-86
2021/08/27 08:17:18;;;;;;;6.00;3.40;;;;;;;;;;5063017;28;20112;-87
2021/08/27 08:19:44;;;;;;;4.43;3.13;;;;;;;;;;5064486;28;20021;-86
2021/08/27 08:22:10;;;;;;;5.28;2.92;;;;;;;;;;5061443;28;20126;-86
2021/08/27 08:24:36;;;;;;;5.82;2.65;;;;;;;;;;5080408;28;20033;-86
2021/08/27 08:27:02;;;;;;;7.03;2.38;;;;;;;;;;5066218;28;20037;-86
2021/08/27 08:29:28;;;;;;;6.30;2.72;;;;;;;;;;5047021;28;20026;-86
2021/08/27 08:31:54;;;;;;;3.63;2.85;;;;;;;;;;5043014;28;20724;-86
2021/08/27 08:34:20;;;;;;;3.40;2.67;;;;;;;;;;5042268;28;20028;-86
2021/08/27 08:36:46;;;;;;;3.97;2.45;;;;;;;;;;5042120;28;20516;-86
2021/08/27 08:39:12;;;;;;;4.60;2.80;;;;;;;;;;5038802;28;20082;-85
2021/08/27 08:41:38;;;;;;;4.57;3.10;;;;;;;;;;5041930;28;20022;-86
2021/08/27 08:44:05;;;;;;;5.50;3.53;;;;;;;;;;5039290;28;20056;-86
2021/08/27 08:46:31;;;;;;;4.93;3.50;;;;;;;;;;5041693;28;20026;-84
2021/08/27 08:48:59;;;;;;;3.40;2.40;;;;;;;;;;5039675;28;20025;-85
2021/08/27 08:51:26;;;;;;;5.63;3.75;;;;;;;;;;5039908;28;20040;-86
2021/08/27 08:53:52;;;;;;;6.00;3.15;;;;;;;;;;5040248;28;20074;-83
2021/08/27 08:56:43;;;;;;;3.65;2.10;;;;;;;;;;5062701;28;20068;-84
2021/08/27 08:59:23;;;;;;;3.08;2.45;;;;;;;;;;5071428;28;20032;-83
2021/08/27 09:01:49;;;;;;;4.68;2.47;;;;;;;;;;5039541;28;20025;-84
2021/08/27 09:04:17;;;;;;;4.38;2.80;;;;;;;;;;5040491;28;20117;-84
2021/08/27 09:06:49;;;;;;;3.75;2.88;;;;;;;;;;5038796;28;20028;-84
2021/08/27 09:09:15;;;;;;;;;;;;;;;;;;5039027;28;20029;-83
2021/08/27 09:11:41;;;;;;;3.80;2.25;;;;;;;;;;5037827;28;19912;-85
2021/08/27 09:14:07;;;;;;;5.00;2.13;;;;;;;;;;5041064;28;20056;-83
2021/08/27 09:16:36;;;;;;;2.70;2.00;;;;;;;;;;5052682;28;20083;-84
2021/08/27 09:19:02;;;;;;;3.92;2.00;;;;;;;;;;5047745;28;20082;-83
2021/08/27 09:21:28;;;;;;;3.53;1.80;;;;;;;;;;5052101;28;20028;-83
2021/08/27 09:24:17;;;;;;;6.05;2.53;;;;;;;;;;5050875;28;20120;-85
2021/08/27 09:26:45;;;;;;;3.50;1.92;;;;;;;;;;5065006;28;20457;-84
2021/08/27 09:29:45;;;;;;;4.95;2.63;;;;;;;;;;5081802;28;20421;-84
2021/08/27 09:32:34;;;;;;;3.20;2.15;;;;;;;;;;5078092;28;20100;-85
2021/08/27 09:35:09;;;;;;;3.28;2.00;;;;;;;;;;5081003;28;20031;-83
2021/08/27 09:37:45;;;;;;;3.17;2.08;;;;;;;;;;5083339;28;20511;-84
2021/08/27 09:40:12;;;;;;;2.85;2.00;;;;;;;;;;5081478;28;20119;-84
2021/08/27 09:42:39;;;;;;;1.45;1.30;;;;;;;;;;5085427;28;20020;-86
2021/08/27 09:45:06;;;;;;;3.08;1.85;;;;;;;;;;5081315;28;20029;-83
2021/08/27 09:48:04;;;;;;;2.67;1.50;;;;;;;;;;5084377;28;20024;-84
2021/08/27 09:50:33;;;;;;;2.97;1.98;;;;;;;;;;5087931;28;20036;-84
2021/08/27 09:53:03;;;;;;;3.53;1.73;;;;;;;;;;5077851;28;20024;-83
2021/08/27 09:55:29;;;;;;;3.20;1.77;;;;;;;;;;5067456;28;20055;-84
2021/08/27 09:58:06;;;;;;;3.55;1.70;;;;;;;;;;5064675;28;20086;-85
2021/08/27 10:04:14;;;;;;;2.95;1.63;;;;;;;;;;5047685;28;20102;-85
2021/08/27 10:06:49;;;;;;;2.30;1.40;;;;;;;;;;4981902;28;20086;-83
2021/08/27 10:12:23;;;;;;;2.38;1.80;;;;;;;;;;5047027;28;20028;-85
2021/08/27 10:17:50;;;;;;;2.90;1.60;;;;;;;;;;5062338;28;20044;-84
2021/08/27 10:20:16;;;;;;;3.60;1.70;;;;;;;;;;5061435;28;20055;-84
2021/08/27 10:22:42;;;;;;;2.72;1.92;;;;;;;;;;5063117;28;20385;-85
2021/08/27 10:25:10;;;;;;;3.90;1.45;;;;;;;;;;5061672;28;20016;-84
2021/08/27 10:27:37;;;;;;;2.60;1.67;;;;;;;;;;5061229;28;20017;-85
2021/08/27 10:30:04;;;;;;;4.35;1.90;;;;;;;;;;5060994;28;20021;-85
2021/08/27 10:32:39;;;;;;;4.13;1.75;;;;;;;;;;5063744;28;20342;-83
2021/08/27 10:35:06;;;;;;;3.38;1.65;;;;;;;;;;5071516;28;20490;-84
2021/08/27 10:37:46;;;;;;;4.35;1.95;;;;;;;;;;5061880;28;20032;-83
2021/08/27 10:40:28;;;;;;;3.78;1.60;;;;;;;;;;5061444;28;20090;-84
2021/08/27 10:43:03;;;;;;;5.57;1.40;;;;;;;;;;5064110;28;20032;-85
2021/08/27 10:45:33;;;;;;;5.38;1.73;;;;;;;;;;5061898;28;20040;-84
2021/08/27 10:48:11;;;;;;;3.45;1.40;;;;;;;;;;5065347;28;20036;-84
2021/08/27 10:50:41;;;;;;;2.42;1.73;;;;;;;;;;5068103;28;20491;-84
2021/08/27 10:53:26;;;;;;;2.40;1.27;;;;;;;;;;5071296;28;20021;-84
2021/08/27 10:55:53;;;;;;;1.83;1.42;;;;;;;;;;5073894;28;20049;-86
2021/08/27 10:58:23;;;;;;;5.20;1.80;;;;;;;;;;5070560;28;20028;-85
2021/08/27 11:00:52;;;;;;;4.57;1.98;;;;;;;;;;5065551;28;20386;-85
2021/08/27 11:03:19;;;;;;;2.42;1.52;;;;;;;;;;5062762;28;20079;-86
2021/08/27 11:05:46;;;;;;;2.05;1.70;;;;;;;;;;5044640;28;20033;-85
2021/08/27 11:08:32;;;;;;;2.15;1.63;;;;;;;;;;5060155;28;20061;-85
2021/08/27 11:11:08;;;;;;;5.15;2.03;;;;;;;;;;5063183;28;20339;-84
2021/08/27 11:13:39;;;;;;;2.25;1.58;;;;;;;;;;5061691;28;20029;-83
2021/08/27 11:16:21;;;;;;;7.60;2.20;;;;;;;;;;5063119;28;20032;-85
2021/08/27 11:18:47;;;;;;;3.88;1.75;;;;;;;;;;5065332;28;20496;-84
2021/08/27 11:21:33;;;;;;;3.25;1.80;;;;;;;;;;5065389;28;20033;-86
2021/08/27 11:24:16;;;;;;;1.58;1.42;;;;;;;;;;5069583;28;20112;-85
2021/08/27 11:26:45;;;;;;;3.45;1.67;;;;;;;;;;5067483;28;20094;-85
2021/08/27 11:29:30;;;;;;;2.00;1.60;;;;;;;;;;5062517;28;20021;-86
2021/08/27 11:31:56;;;;;;;2.10;1.67;;;;;;;;;;5064087;28;20028;-86
2021/08/27 11:34:26;;;;;;;3.22;1.77;;;;;;;;;;5066843;28;20037;-85
2021/08/27 11:36:52;;;;;;;1.70;1.30;;;;;;;;;;5063657;28;20021;-84
2021/08/27 11:39:19;;;;;;;4.05;1.70;;;;;;;;;;5068104;28;20132;-85
2021/08/27 11:41:45;;;;;;;1.90;1.20;;;;;;;;;;5063931;28;20021;-85
2021/08/27 11:44:12;;;;;;;2.67;1.98;;;;;;;;;;5063299;28;20029;-85
2021/08/27 11:46:39;;;;;;;4.13;1.70;;;;;;;;;;5062029;28;20032;-85
2021/08/27 11:49:16;;;;;;;3.30;1.52;;;;;;;;;;5060908;28;20021;-85
2021/08/27 11:52:05;;;;;;;2.40;1.65;;;;;;;;;;5062094;28;20028;-85
2021/08/27 11:54:31;;;;;;;2.53;1.42;;;;;;;;;;5049047;28;20034;-84
2021/08/27 11:56:57;;;;;;;1.77;1.52;;;;;;;;;;5042405;28;20056;-84
2021/08/27 11:59:24;;;;;;;4.57;1.48;;;;;;;;;;5042381;28;20030;-84
2021/08/27 12:01:50;;;;;;;1.70;1.20;;;;;;;;;;5044758;28;20106;-85
2021/08/27 12:04:30;;;;;;;2.20;1.42;;;;;;;;;;5043170;28;20116;-84
2021/08/27 12:07:14;;;;;;;3.47;1.45;;;;;;;;;;5056976;28;20029;-84
2021/08/27 12:09:41;;;;;;;2.38;1.50;;;;;;;;;;5062588;28;20021;-85
2021/08/27 12:12:07;;;;;;;2.97;1.55;;;;;;;;;;5061156;28;20021;-84
2021/08/27 12:14:46;;;;;;;4.00;2.00;;;;;;;;;;5062410;28;20402;-85
2021/08/27 12:17:17;;;;;;;3.05;2.20;;;;;;;;;;5069578;28;20010;-83
2021/08/27 12:19:43;;;;;;;3.65;1.50;;;;;;;;;;5076298;28;20024;-83
2021/08/27 12:22:12;;;;;;;1.70;1.60;;;;;;;;;;5077788;28;20025;-83
2021/08/27 12:24:39;;;;;;;2.25;1.30;;;;;;;;;;5076686;28;20049;-83
2021/08/27 12:27:05;;;;;;;4.13;2.00;;;;;;;;;;5076697;28;20029;-83
2021/08/27 12:29:35;;;;;;;3.63;2.22;;;;;;;;;;5076226;28;20027;-86
2021/08/27 12:32:01;;;;;;;2.63;1.55;;;;;;;;;;5059795;28;20032;-88
2021/08/27 12:34:47;;;;;;;2.30;1.88;;;;;;;;;;5077942;28;20021;-91
2021/08/27 12:37:17;;;;;;;2.53;1.67;;;;;;;;;;5067531;28;20017;-86
2021/08/27 12:39:43;;;;;;;2.90;1.75;;;;;;;;;;5055140;28;20048;-85
2021/08/27 12:42:17;;;;;;;2.00;1.30;;;;;;;;;;5056426;28;20026;-86
2021/08/27 12:44:57;;;;;;;2.78;1.25;;;;;;;;;;5057138;28;20022;-85
2021/08/27 12:47:34;;;;;;;4.95;1.30;;;;;;;;;;5064768;28;20033;-84
2021/08/27 12:50:08;;;;;;;4.03;1.30;;;;;;;;;;5074633;28;20100;-83
2021/08/27 12:52:34;;;;;;;2.25;1.40;;;;;;;;;;5055632;28;20034;-83
2021/08/27 12:55:00;;;;;;;1.60;1.13;;;;;;;;;;5075540;28;20159;-83
2021/08/27 12:57:27;;;;;;;2.28;1.55;;;;;;;;;;5071569;28;20021;-83
2021/08/27 12:59:58;;;;;;;4.85;2.30;;;;;;;;;;5073456;28;20144;-85
2021/08/27 13:02:24;;;;;;;4.07;1.25;;;;;;;;;;5072734;28;20398;-84
2021/08/27 13:04:53;;;;;;;3.25;1.35;;;;;;;;;;5072740;28;20029;-85
2021/08/27 13:07:33;;;;;;;2.55;1.50;;;;;;;;;;5068964;28;20008;-82
2021/08/27 13:10:14;;;;;;;2.72;1.60;;;;;;;;;;5070962;28;20001;-84
2021/08/27 13:12:50;;;;;;;7.22;1.77;;;;;;;;;;5071259;28;20009;-82
2021/08/27 13:15:18;;;;;;;3.25;1.90;;;;;;;;;;5061701;28;20017;-83
2021/08/27 13:18:04;;;;;;;2.42;1.30;;;;;;;;;;5067748;28;20088;-83
2021/08/27 13:20:33;;;;;;;2.22;1.30;;;;;;;;;;5083745;28;20021;-84
2021/08/27 13:23:18;;;;;;;2.25;1.10;;;;;;;;;;5070408;28;20045;-83
2021/08/27 13:26:01;;;;;;;3.85;1.02;;;;;;;;;;5083675;28;20029;-85
2021/08/27 13:28:29;;;;;;;1.70;1.42;;;;;;;;;;5066948;28;20089;-82
2021/08/27 13:30:55;;;;;;;3.15;1.73;;;;;;;;;;5061518;28;20009;-84
2021/08/27 13:33:22;;;;;;;1.95;1.40;;;;;;;;;;5068769;28;20025;-85
2021/08/27 13:35:48;;;;;;;2.80;1.73;;;;;;;;;;5065019;28;20037;-84
2021/08/27 13:38:15;;;;;;;3.13;1.23;;;;;;;;;;5067398;28;20135;-84
2021/08/27 13:40:41;;;;;;;2.42;1.45;;;;;;;;;;5074885;28;20051;-85
2021/08/27 13:43:09;;;;;;;3.00;1.65;;;;;;;;;;5072093;28;20009;-85
2021/08/27 13:45:35;;;;;;;1.98;1.65;;;;;;;;;;5073455;28;20025;-85
2021/08/27 13:48:02;;;;;;;1.92;1.58;;;;;;;;;;5075249;28;20029;-84
2021/08/27 13:50:28;;;;;;;4.35;1.98;;;;;;;;;;5086890;28;20025;-85
2021/08/27 13:52:54;;;;;;;2.33;1.55;;;;;;;;;;5066273;28;20068;-85
2021/08/27 13:55:22;;;;;;;4.18;1.92;;;;;;;;;;5071443;28;20032;-84
2021/08/27 13:57:48;;;;;;;3.22;1.92;;;;;;;;;;5076287;28;20039;-86
2021/08/27 14:00:15;;;;;;;2.55;1.45;;;;;;;;;;5058818;28;20044;-85
2021/08/27 14:02:41;;;;;;;3.22;1.25;;;;;;;;;;5050360;28;20025;-85
2021/08/27 14:05:09;;;;;;;1.80;1.40;;;;;;;;;;5046477;28;20040;-83
2021/08/27 14:07:35;;;;;;;3.50;1.40;;;;;;;;;;5059210;28;20029;-86
2021/08/27 14:10:02;;;;;;;6.32;2.17;;;;;;;;;;5062313;28;20071;-84
2021/08/27 14:12:28;;;;;;;6.32;3.15;;;;;;;;;;5069261;28;20113;-84
2021/08/27 14:14:54;;;;;;;2.15;1.40;;;;;;;;;;5068880;28;20028;-84
2021/08/27 14:17:21;;;;;;;1.20;1.10;;;;;;;;;;5071947;28;20087;-84
2021/08/27 14:19:48;;;;;;;1.33;1.00;;;;;;;;;;5073775;28;20048;-85
2021/08/27 14:22:14;;;;;;;2.75;1.17;;;;;;;;;;5072693;28;20120;-85
2021/08/27 14:24:41;;;;;;;1.50;1.13;;;;;;;;;;5072516;28;20033;-85
2021/08/27 14:27:07;;;;;;;2.17;1.20;;;;;;;;;;5071270;28;20025;-84
2021/08/27 14:29:33;;;;;;;2.95;1.10;;;;;;;;;;5072542;28;20021;-84
2021/08/27 14:32:04;;;;;;;2.70;0.77;;;;;;;;;;5070981;28;20021;-85
2021/08/27 14:34:30;;;;;;;2.05;1.15;;;;;;;;;;5071923;28;20021;-86
2021/08/27 14:36:56;;;;;;;1.20;1.10;;;;;;;;;;5074739;28;20021;-85
2021/08/27 14:39:22;;;;;;;1.77;0.93;;;;;;;;;;5067336;28;20033;-85
2021/08/27 14:41:48;;;;;;;2.30;0.88;;;;;;;;;;5059595;28;20040;-85
2021/08/27 14:44:15;;;;;;;1.38;0.90;;;;;;;;;;5058887;28;20033;-85
2021/08/27 14:46:42;;;;;;;1.48;1.10;;;;;;;;;;5059668;28;20013;-85
2021/08/27 14:49:08;;;;;;;1.70;1.60;;;;;;;;;;5060915;28;20108;-86
2021/08/27 14:51:34;;;;;;;1.23;1.02;;;;;;;;;;5057838;28;20029;-86
2021/08/27 14:54:00;;;;;;;2.45;1.98;;;;;;;;;;5051099;28;20348;-84
2021/08/27 14:56:33;;;;;;;1.48;1.38;;;;;;;;;;5049279;28;20041;-84
2021/08/27 14:58:59;;;;;;;9.55;2.60;;;;;;;;;;5048410;28;20112;-85
2021/08/27 15:01:25;;;;;;;1.58;0.90;;;;;;;;;;5042435;28;20061;-84
2021/08/27 15:03:52;;;;;;;1.73;1.30;;;;;;;;;;5041436;28;20034;-84